sensor_id;sensor_type;location;lat;lon;timestamp;P1;durP1;ratioP1;P2;durP2;ratioP2
9294;SDS011;4686;44.496;11.324;2022-12-29T00:01:34;106.60;;;56.30;;
9294;SDS011;4686;44.496;11.324;2022-12-29T00:04:03;113.50;;;56.53;;
9294;SDS011;4686;44.496;11.324;2022-12-29T00:06:31;115.40;;;58.57;;
9294;SDS011;4686;44.496;11.324;2022-12-29T00:09:00;113.63;;;57.57;;
9294;SDS011;4686;44.496;11.324;2022-12-29T00:11:29;116.30;;;59.20;;
9294;SDS011;4686;44.496;11.324;2022-12-29T00:13:56;118.73;;;60.60;;
9294;SDS011;4686;44.496;11.324;2022-12-29T00:16:42;113.00;;;58.00;;
9294;SDS011;4686;44.496;11.324;2022-12-29T00:19:11;113.77;;;57.77;;
9294;SDS011;4686;44.496;11.324;2022-12-29T00:21:53;107.80;;;59.00;;
9294;SDS011;4686;44.496;11.324;2022-12-29T00:24:38;113.57;;;57.77;;
9294;SDS011;4686;44.496;11.324;2022-12-29T00:27:23;115.20;;;59.50;;
9294;SDS011;4686;44.496;11.324;2022-12-29T00:30:08;106.77;;;56.97;;
9294;SDS011;4686;44.496;11.324;2022-12-29T00:32:53;121.73;;;59.40;;
9294;SDS011;4686;44.496;11.324;2022-12-29T00:35:39;130.53;;;58.50;;
9294;SDS011;4686;44.496;11.324;2022-12-29T00:38:10;119.00;;;59.90;;
9294;SDS011;4686;44.496;11.324;2022-12-29T00:40:55;117.40;;;58.60;;
9294;SDS011;4686;44.496;11.324;2022-12-29T00:43:40;117.50;;;61.33;;
9294;SDS011;4686;44.496;11.324;2022-12-29T00:46:24;118.17;;;57.70;;
9294;SDS011;4686;44.496;11.324;2022-12-29T00:48:52;122.17;;;58.37;;
9294;SDS011;4686;44.496;11.324;2022-12-29T00:51:38;125.90;;;60.10;;
9294;SDS011;4686;44.496;11.324;2022-12-29T00:54:05;112.90;;;58.23;;
9294;SDS011;4686;44.496;11.324;2022-12-29T00:56:33;110.33;;;57.03;;
9294;SDS011;4686;44.496;11.324;2022-12-29T00:59:00;127.47;;;58.03;;
9294;SDS011;4686;44.496;11.324;2022-12-29T01:01:28;117.20;;;57.30;;
9294;SDS011;4686;44.496;11.324;2022-12-29T01:03:55;123.00;;;58.60;;
9294;SDS011;4686;44.496;11.324;2022-12-29T01:06:23;131.23;;;58.83;;
9294;SDS011;4686;44.496;11.324;2022-12-29T01:08:52;120.33;;;56.67;;
9294;SDS011;4686;44.496;11.324;2022-12-29T01:11:33;123.53;;;59.23;;
9294;SDS011;4686;44.496;11.324;2022-12-29T01:14:00;127.13;;;61.77;;
9294;SDS011;4686;44.496;11.324;2022-12-29T01:16:27;118.53;;;61.00;;
9294;SDS011;4686;44.496;11.324;2022-12-29T01:18:55;111.77;;;56.10;;
9294;SDS011;4686;44.496;11.324;2022-12-29T01:21:22;114.33;;;58.50;;
9294;SDS011;4686;44.496;11.324;2022-12-29T01:23:49;117.57;;;61.00;;
9294;SDS011;4686;44.496;11.324;2022-12-29T01:26:18;119.63;;;65.07;;
9294;SDS011;4686;44.496;11.324;2022-12-29T01:28:46;118.27;;;59.90;;
9294;SDS011;4686;44.496;11.324;2022-12-29T01:31:13;119.23;;;63.10;;
9294;SDS011;4686;44.496;11.324;2022-12-29T01:33:41;112.00;;;59.87;;
9294;SDS011;4686;44.496;11.324;2022-12-29T01:36:10;132.17;;;62.63;;
9294;SDS011;4686;44.496;11.324;2022-12-29T01:38:38;118.30;;;63.40;;
9294;SDS011;4686;44.496;11.324;2022-12-29T01:41:05;115.97;;;60.27;;
9294;SDS011;4686;44.496;11.324;2022-12-29T01:43:41;123.33;;;60.17;;
9294;SDS011;4686;44.496;11.324;2022-12-29T01:46:12;109.30;;;60.70;;
9294;SDS011;4686;44.496;11.324;2022-12-29T01:48:43;111.00;;;59.93;;
9294;SDS011;4686;44.496;11.324;2022-12-29T01:51:12;115.07;;;62.50;;
9294;SDS011;4686;44.496;11.324;2022-12-29T01:53:42;123.50;;;62.67;;
9294;SDS011;4686;44.496;11.324;2022-12-29T01:56:10;109.90;;;58.57;;
9294;SDS011;4686;44.496;11.324;2022-12-29T01:58:39;116.67;;;61.03;;
9294;SDS011;4686;44.496;11.324;2022-12-29T02:01:10;118.07;;;60.93;;
9294;SDS011;4686;44.496;11.324;2022-12-29T02:03:37;120.47;;;62.37;;
9294;SDS011;4686;44.496;11.324;2022-12-29T02:06:06;115.80;;;61.30;;
9294;SDS011;4686;44.496;11.324;2022-12-29T02:08:37;116.57;;;59.20;;
9294;SDS011;4686;44.496;11.324;2022-12-29T02:11:05;110.63;;;58.87;;
9294;SDS011;4686;44.496;11.324;2022-12-29T02:13:33;119.67;;;61.07;;
9294;SDS011;4686;44.496;11.324;2022-12-29T02:16:02;110.83;;;57.70;;
9294;SDS011;4686;44.496;11.324;2022-12-29T02:18:35;120.50;;;60.87;;
9294;SDS011;4686;44.496;11.324;2022-12-29T02:21:16;116.80;;;58.50;;
9294;SDS011;4686;44.496;11.324;2022-12-29T02:23:55;116.70;;;59.67;;
9294;SDS011;4686;44.496;11.324;2022-12-29T02:26:34;105.43;;;59.80;;
9294;SDS011;4686;44.496;11.324;2022-12-29T02:29:14;113.53;;;59.57;;
9294;SDS011;4686;44.496;11.324;2022-12-29T02:31:50;114.37;;;59.23;;
9294;SDS011;4686;44.496;11.324;2022-12-29T02:34:22;114.23;;;59.30;;
9294;SDS011;4686;44.496;11.324;2022-12-29T02:36:52;124.00;;;63.33;;
9294;SDS011;4686;44.496;11.324;2022-12-29T02:39:25;118.07;;;61.60;;
9294;SDS011;4686;44.496;11.324;2022-12-29T02:41:56;114.70;;;58.37;;
9294;SDS011;4686;44.496;11.324;2022-12-29T02:44:26;111.13;;;61.20;;
9294;SDS011;4686;44.496;11.324;2022-12-29T02:47:00;114.70;;;60.67;;
9294;SDS011;4686;44.496;11.324;2022-12-29T02:49:30;118.43;;;60.33;;
9294;SDS011;4686;44.496;11.324;2022-12-29T02:52:01;110.37;;;59.80;;
9294;SDS011;4686;44.496;11.324;2022-12-29T02:54:29;115.67;;;60.50;;
9294;SDS011;4686;44.496;11.324;2022-12-29T02:57:11;109.70;;;58.90;;
9294;SDS011;4686;44.496;11.324;2022-12-29T02:59:39;116.07;;;58.60;;
9294;SDS011;4686;44.496;11.324;2022-12-29T03:02:14;107.97;;;59.10;;
9294;SDS011;4686;44.496;11.324;2022-12-29T03:07:29;119.27;;;60.20;;
9294;SDS011;4686;44.496;11.324;2022-12-29T03:10:04;112.33;;;59.67;;
9294;SDS011;4686;44.496;11.324;2022-12-29T03:12:37;115.30;;;62.00;;
9294;SDS011;4686;44.496;11.324;2022-12-29T03:15:27;113.40;;;59.90;;
9294;SDS011;4686;44.496;11.324;2022-12-29T03:18:20;118.13;;;62.63;;
9294;SDS011;4686;44.496;11.324;2022-12-29T03:20:49;109.27;;;56.47;;
9294;SDS011;4686;44.496;11.324;2022-12-29T03:23:19;117.17;;;60.20;;
9294;SDS011;4686;44.496;11.324;2022-12-29T03:25:48;123.90;;;60.90;;
9294;SDS011;4686;44.496;11.324;2022-12-29T03:28:18;113.80;;;61.10;;
9294;SDS011;4686;44.496;11.324;2022-12-29T03:30:46;113.00;;;62.33;;
9294;SDS011;4686;44.496;11.324;2022-12-29T03:33:16;116.10;;;60.37;;
9294;SDS011;4686;44.496;11.324;2022-12-29T03:35:44;117.10;;;58.50;;
9294;SDS011;4686;44.496;11.324;2022-12-29T03:38:13;111.30;;;62.30;;
9294;SDS011;4686;44.496;11.324;2022-12-29T03:40:44;115.63;;;60.77;;
9294;SDS011;4686;44.496;11.324;2022-12-29T03:43:12;112.70;;;59.60;;
9294;SDS011;4686;44.496;11.324;2022-12-29T03:45:39;117.50;;;61.93;;
9294;SDS011;4686;44.496;11.324;2022-12-29T03:48:06;108.97;;;61.80;;
9294;SDS011;4686;44.496;11.324;2022-12-29T03:50:35;126.27;;;66.80;;
9294;SDS011;4686;44.496;11.324;2022-12-29T03:53:02;121.10;;;63.93;;
9294;SDS011;4686;44.496;11.324;2022-12-29T03:55:30;133.67;;;64.90;;
9294;SDS011;4686;44.496;11.324;2022-12-29T03:57:58;123.27;;;62.70;;
9294;SDS011;4686;44.496;11.324;2022-12-29T04:00:25;128.40;;;64.67;;
9294;SDS011;4686;44.496;11.324;2022-12-29T04:02:53;117.13;;;61.20;;
9294;SDS011;4686;44.496;11.324;2022-12-29T04:05:20;120.07;;;61.60;;
9294;SDS011;4686;44.496;11.324;2022-12-29T04:07:49;115.90;;;63.43;;
9294;SDS011;4686;44.496;11.324;2022-12-29T04:10:16;117.33;;;63.63;;
9294;SDS011;4686;44.496;11.324;2022-12-29T04:12:43;123.70;;;66.33;;
9294;SDS011;4686;44.496;11.324;2022-12-29T04:15:11;124.30;;;64.90;;
9294;SDS011;4686;44.496;11.324;2022-12-29T04:17:39;115.70;;;64.10;;
9294;SDS011;4686;44.496;11.324;2022-12-29T04:20:07;119.87;;;63.13;;
9294;SDS011;4686;44.496;11.324;2022-12-29T04:22:58;117.90;;;62.80;;
9294;SDS011;4686;44.496;11.324;2022-12-29T04:25:25;120.43;;;61.90;;
9294;SDS011;4686;44.496;11.324;2022-12-29T04:27:53;117.97;;;61.20;;
9294;SDS011;4686;44.496;11.324;2022-12-29T04:30:20;109.50;;;61.03;;
9294;SDS011;4686;44.496;11.324;2022-12-29T04:32:48;109.93;;;58.20;;
9294;SDS011;4686;44.496;11.324;2022-12-29T04:35:15;112.47;;;60.30;;
9294;SDS011;4686;44.496;11.324;2022-12-29T04:37:42;117.43;;;61.63;;
9294;SDS011;4686;44.496;11.324;2022-12-29T04:40:11;125.40;;;65.20;;
9294;SDS011;4686;44.496;11.324;2022-12-29T04:42:39;130.67;;;66.33;;
9294;SDS011;4686;44.496;11.324;2022-12-29T04:45:07;128.63;;;63.33;;
9294;SDS011;4686;44.496;11.324;2022-12-29T04:47:34;130.80;;;68.53;;
9294;SDS011;4686;44.496;11.324;2022-12-29T04:50:01;128.73;;;65.10;;
9294;SDS011;4686;44.496;11.324;2022-12-29T04:52:28;120.67;;;65.87;;
9294;SDS011;4686;44.496;11.324;2022-12-29T04:54:56;128.77;;;67.20;;
9294;SDS011;4686;44.496;11.324;2022-12-29T04:57:24;122.30;;;68.00;;
9294;SDS011;4686;44.496;11.324;2022-12-29T04:59:52;137.80;;;65.70;;
9294;SDS011;4686;44.496;11.324;2022-12-29T05:02:19;130.37;;;66.47;;
9294;SDS011;4686;44.496;11.324;2022-12-29T05:04:47;119.53;;;66.73;;
9294;SDS011;4686;44.496;11.324;2022-12-29T05:07:14;135.83;;;68.27;;
9294;SDS011;4686;44.496;11.324;2022-12-29T05:09:41;130.70;;;69.00;;
9294;SDS011;4686;44.496;11.324;2022-12-29T05:12:09;130.73;;;67.40;;
9294;SDS011;4686;44.496;11.324;2022-12-29T05:14:37;125.57;;;66.33;;
9294;SDS011;4686;44.496;11.324;2022-12-29T05:17:04;116.83;;;64.40;;
9294;SDS011;4686;44.496;11.324;2022-12-29T05:19:32;130.27;;;66.07;;
9294;SDS011;4686;44.496;11.324;2022-12-29T05:21:59;127.17;;;64.10;;
9294;SDS011;4686;44.496;11.324;2022-12-29T05:24:26;114.80;;;63.47;;
9294;SDS011;4686;44.496;11.324;2022-12-29T05:26:54;126.67;;;64.90;;
9294;SDS011;4686;44.496;11.324;2022-12-29T05:29:21;128.73;;;62.40;;
9294;SDS011;4686;44.496;11.324;2022-12-29T05:31:50;129.90;;;63.47;;
9294;SDS011;4686;44.496;11.324;2022-12-29T05:34:17;113.00;;;61.27;;
9294;SDS011;4686;44.496;11.324;2022-12-29T05:36:44;117.73;;;61.00;;
9294;SDS011;4686;44.496;11.324;2022-12-29T05:39:11;117.87;;;63.70;;
9294;SDS011;4686;44.496;11.324;2022-12-29T05:41:39;130.17;;;66.10;;
9294;SDS011;4686;44.496;11.324;2022-12-29T05:44:06;124.80;;;62.10;;
9294;SDS011;4686;44.496;11.324;2022-12-29T05:46:33;125.87;;;67.43;;
9294;SDS011;4686;44.496;11.324;2022-12-29T05:49:02;141.00;;;67.70;;
9294;SDS011;4686;44.496;11.324;2022-12-29T05:51:29;135.57;;;68.73;;
9294;SDS011;4686;44.496;11.324;2022-12-29T05:53:57;134.27;;;68.17;;
9294;SDS011;4686;44.496;11.324;2022-12-29T05:56:24;136.10;;;67.37;;
9294;SDS011;4686;44.496;11.324;2022-12-29T05:58:51;137.47;;;68.93;;
9294;SDS011;4686;44.496;11.324;2022-12-29T06:01:20;131.37;;;67.20;;
9294;SDS011;4686;44.496;11.324;2022-12-29T06:03:47;134.90;;;71.20;;
9294;SDS011;4686;44.496;11.324;2022-12-29T06:06:16;142.03;;;71.47;;
9294;SDS011;4686;44.496;11.324;2022-12-29T06:08:45;136.17;;;69.53;;
9294;SDS011;4686;44.496;11.324;2022-12-29T06:11:13;132.37;;;69.30;;
9294;SDS011;4686;44.496;11.324;2022-12-29T06:13:40;137.53;;;70.60;;
9294;SDS011;4686;44.496;11.324;2022-12-29T06:16:10;127.47;;;68.80;;
9294;SDS011;4686;44.496;11.324;2022-12-29T06:18:38;134.07;;;70.87;;
9294;SDS011;4686;44.496;11.324;2022-12-29T06:21:05;137.27;;;73.97;;
9294;SDS011;4686;44.496;11.324;2022-12-29T06:23:34;138.27;;;71.37;;
9294;SDS011;4686;44.496;11.324;2022-12-29T06:26:02;125.53;;;69.90;;
9294;SDS011;4686;44.496;11.324;2022-12-29T06:28:29;143.27;;;76.30;;
9294;SDS011;4686;44.496;11.324;2022-12-29T06:30:56;133.77;;;72.27;;
9294;SDS011;4686;44.496;11.324;2022-12-29T06:33:24;144.87;;;72.83;;
9294;SDS011;4686;44.496;11.324;2022-12-29T06:35:51;143.77;;;74.87;;
9294;SDS011;4686;44.496;11.324;2022-12-29T06:38:18;136.97;;;72.13;;
9294;SDS011;4686;44.496;11.324;2022-12-29T06:40:47;131.27;;;68.70;;
9294;SDS011;4686;44.496;11.324;2022-12-29T06:43:15;146.53;;;75.80;;
9294;SDS011;4686;44.496;11.324;2022-12-29T06:45:43;137.40;;;71.90;;
9294;SDS011;4686;44.496;11.324;2022-12-29T06:48:10;148.17;;;71.40;;
9294;SDS011;4686;44.496;11.324;2022-12-29T06:50:37;138.57;;;70.80;;
9294;SDS011;4686;44.496;11.324;2022-12-29T06:53:05;130.07;;;70.50;;
9294;SDS011;4686;44.496;11.324;2022-12-29T06:55:32;123.40;;;67.77;;
9294;SDS011;4686;44.496;11.324;2022-12-29T06:58:00;137.03;;;72.53;;
9294;SDS011;4686;44.496;11.324;2022-12-29T07:00:28;141.73;;;74.30;;
9294;SDS011;4686;44.496;11.324;2022-12-29T07:02:55;137.97;;;71.40;;
9294;SDS011;4686;44.496;11.324;2022-12-29T07:05:23;140.40;;;73.23;;
9294;SDS011;4686;44.496;11.324;2022-12-29T07:07:52;136.27;;;70.37;;
9294;SDS011;4686;44.496;11.324;2022-12-29T07:10:21;139.33;;;73.33;;
9294;SDS011;4686;44.496;11.324;2022-12-29T07:12:49;130.27;;;68.67;;
9294;SDS011;4686;44.496;11.324;2022-12-29T07:15:17;135.13;;;70.07;;
9294;SDS011;4686;44.496;11.324;2022-12-29T07:17:45;137.10;;;73.30;;
9294;SDS011;4686;44.496;11.324;2022-12-29T07:20:14;149.83;;;73.93;;
9294;SDS011;4686;44.496;11.324;2022-12-29T07:22:41;141.63;;;73.40;;
9294;SDS011;4686;44.496;11.324;2022-12-29T07:25:09;148.90;;;76.77;;
9294;SDS011;4686;44.496;11.324;2022-12-29T07:27:36;153.17;;;79.33;;
9294;SDS011;4686;44.496;11.324;2022-12-29T07:30:04;150.80;;;77.10;;
9294;SDS011;4686;44.496;11.324;2022-12-29T07:32:33;152.13;;;73.90;;
9294;SDS011;4686;44.496;11.324;2022-12-29T07:35:00;118.53;;;65.10;;
9294;SDS011;4686;44.496;11.324;2022-12-29T07:37:28;136.73;;;66.30;;
9294;SDS011;4686;44.496;11.324;2022-12-29T07:39:55;120.30;;;59.10;;
9294;SDS011;4686;44.496;11.324;2022-12-29T07:42:22;129.00;;;64.30;;
9294;SDS011;4686;44.496;11.324;2022-12-29T07:44:50;131.37;;;62.40;;
9294;SDS011;4686;44.496;11.324;2022-12-29T07:47:17;117.10;;;58.03;;
9294;SDS011;4686;44.496;11.324;2022-12-29T07:49:45;116.10;;;54.37;;
9294;SDS011;4686;44.496;11.324;2022-12-29T07:52:13;121.33;;;55.20;;
9294;SDS011;4686;44.496;11.324;2022-12-29T07:54:40;119.50;;;56.50;;
9294;SDS011;4686;44.496;11.324;2022-12-29T07:57:07;117.37;;;55.30;;
9294;SDS011;4686;44.496;11.324;2022-12-29T07:59:35;118.83;;;53.20;;
9294;SDS011;4686;44.496;11.324;2022-12-29T08:02:02;109.70;;;51.80;;
9294;SDS011;4686;44.496;11.324;2022-12-29T08:04:29;112.20;;;53.70;;
9294;SDS011;4686;44.496;11.324;2022-12-29T08:06:58;110.80;;;54.13;;
9294;SDS011;4686;44.496;11.324;2022-12-29T08:09:26;118.23;;;58.47;;
9294;SDS011;4686;44.496;11.324;2022-12-29T08:11:54;116.80;;;54.90;;
9294;SDS011;4686;44.496;11.324;2022-12-29T08:14:21;122.47;;;54.40;;
9294;SDS011;4686;44.496;11.324;2022-12-29T08:16:49;114.43;;;54.40;;
9294;SDS011;4686;44.496;11.324;2022-12-29T08:19:17;109.20;;;54.60;;
9294;SDS011;4686;44.496;11.324;2022-12-29T08:21:44;111.23;;;55.40;;
9294;SDS011;4686;44.496;11.324;2022-12-29T08:24:13;114.60;;;55.17;;
9294;SDS011;4686;44.496;11.324;2022-12-29T08:26:40;102.77;;;51.20;;
9294;SDS011;4686;44.496;11.324;2022-12-29T08:29:07;107.07;;;51.30;;
9294;SDS011;4686;44.496;11.324;2022-12-29T08:31:35;107.80;;;51.37;;
9294;SDS011;4686;44.496;11.324;2022-12-29T08:34:02;109.20;;;51.53;;
9294;SDS011;4686;44.496;11.324;2022-12-29T08:36:30;101.87;;;46.63;;
9294;SDS011;4686;44.496;11.324;2022-12-29T08:38:57;102.20;;;48.77;;
9294;SDS011;4686;44.496;11.324;2022-12-29T08:41:26;91.07;;;45.27;;
9294;SDS011;4686;44.496;11.324;2022-12-29T08:43:53;107.07;;;49.90;;
9294;SDS011;4686;44.496;11.324;2022-12-29T08:46:21;102.03;;;48.80;;
9294;SDS011;4686;44.496;11.324;2022-12-29T08:48:48;97.70;;;47.80;;
9294;SDS011;4686;44.496;11.324;2022-12-29T08:51:16;95.70;;;45.70;;
9294;SDS011;4686;44.496;11.324;2022-12-29T08:53:43;95.50;;;45.20;;
9294;SDS011;4686;44.496;11.324;2022-12-29T08:56:10;96.90;;;44.60;;
9294;SDS011;4686;44.496;11.324;2022-12-29T08:58:39;109.73;;;48.20;;
9294;SDS011;4686;44.496;11.324;2022-12-29T09:01:06;101.03;;;46.30;;
9294;SDS011;4686;44.496;11.324;2022-12-29T09:03:34;90.50;;;42.93;;
9294;SDS011;4686;44.496;11.324;2022-12-29T09:06:01;98.17;;;45.63;;
9294;SDS011;4686;44.496;11.324;2022-12-29T09:08:28;98.60;;;45.90;;
9294;SDS011;4686;44.496;11.324;2022-12-29T09:11:04;97.00;;;45.90;;
9294;SDS011;4686;44.496;11.324;2022-12-29T09:13:32;86.67;;;41.40;;
9294;SDS011;4686;44.496;11.324;2022-12-29T09:16:01;89.43;;;41.67;;
9294;SDS011;4686;44.496;11.324;2022-12-29T09:18:28;94.43;;;42.60;;
9294;SDS011;4686;44.496;11.324;2022-12-29T09:20:56;91.70;;;37.63;;
9294;SDS011;4686;44.496;11.324;2022-12-29T09:23:24;86.03;;;41.47;;
9294;SDS011;4686;44.496;11.324;2022-12-29T09:25:51;80.23;;;38.37;;
9294;SDS011;4686;44.496;11.324;2022-12-29T09:28:18;81.70;;;39.00;;
9294;SDS011;4686;44.496;11.324;2022-12-29T09:30:46;84.37;;;39.10;;
9294;SDS011;4686;44.496;11.324;2022-12-29T09:33:14;102.47;;;44.53;;
9294;SDS011;4686;44.496;11.324;2022-12-29T09:35:42;96.67;;;45.57;;
9294;SDS011;4686;44.496;11.324;2022-12-29T09:38:09;96.90;;;46.83;;
9294;SDS011;4686;44.496;11.324;2022-12-29T09:40:37;95.83;;;45.47;;
9294;SDS011;4686;44.496;11.324;2022-12-29T09:43:08;104.93;;;46.33;;
9294;SDS011;4686;44.496;11.324;2022-12-29T09:45:40;104.20;;;48.30;;
9294;SDS011;4686;44.496;11.324;2022-12-29T09:48:11;97.93;;;45.60;;
9294;SDS011;4686;44.496;11.324;2022-12-29T09:50:42;99.67;;;45.20;;
9294;SDS011;4686;44.496;11.324;2022-12-29T09:53:12;104.47;;;45.20;;
9294;SDS011;4686;44.496;11.324;2022-12-29T09:55:42;102.47;;;45.90;;
9294;SDS011;4686;44.496;11.324;2022-12-29T09:58:13;105.83;;;45.50;;
9294;SDS011;4686;44.496;11.324;2022-12-29T10:00:44;111.23;;;46.40;;
9294;SDS011;4686;44.496;11.324;2022-12-29T10:03:15;111.77;;;46.23;;
9294;SDS011;4686;44.496;11.324;2022-12-29T10:05:45;106.80;;;44.93;;
9294;SDS011;4686;44.496;11.324;2022-12-29T10:08:20;103.63;;;45.50;;
9294;SDS011;4686;44.496;11.324;2022-12-29T10:10:54;103.70;;;43.10;;
9294;SDS011;4686;44.496;11.324;2022-12-29T10:13:28;96.53;;;41.43;;
9294;SDS011;4686;44.496;11.324;2022-12-29T10:16:01;95.10;;;43.03;;
9294;SDS011;4686;44.496;11.324;2022-12-29T10:18:37;89.63;;;38.33;;
9294;SDS011;4686;44.496;11.324;2022-12-29T10:21:08;90.47;;;42.47;;
9294;SDS011;4686;44.496;11.324;2022-12-29T10:23:42;96.20;;;44.60;;
9294;SDS011;4686;44.496;11.324;2022-12-29T10:26:12;89.67;;;41.40;;
9294;SDS011;4686;44.496;11.324;2022-12-29T10:28:43;90.77;;;42.53;;
9294;SDS011;4686;44.496;11.324;2022-12-29T10:31:13;91.90;;;42.90;;
9294;SDS011;4686;44.496;11.324;2022-12-29T10:33:42;98.90;;;41.63;;
9294;SDS011;4686;44.496;11.324;2022-12-29T10:36:15;92.10;;;40.17;;
9294;SDS011;4686;44.496;11.324;2022-12-29T10:38:45;88.57;;;41.83;;
9294;SDS011;4686;44.496;11.324;2022-12-29T10:41:17;89.20;;;42.87;;
9294;SDS011;4686;44.496;11.324;2022-12-29T10:43:45;85.63;;;43.10;;
9294;SDS011;4686;44.496;11.324;2022-12-29T10:46:14;93.43;;;45.07;;
9294;SDS011;4686;44.496;11.324;2022-12-29T10:48:43;93.80;;;46.13;;
9294;SDS011;4686;44.496;11.324;2022-12-29T10:51:15;92.57;;;46.30;;
9294;SDS011;4686;44.496;11.324;2022-12-29T10:53:47;96.00;;;46.30;;
9294;SDS011;4686;44.496;11.324;2022-12-29T10:56:20;90.47;;;44.90;;
9294;SDS011;4686;44.496;11.324;2022-12-29T10:58:48;83.83;;;43.13;;
9294;SDS011;4686;44.496;11.324;2022-12-29T11:01:17;96.73;;;46.47;;
9294;SDS011;4686;44.496;11.324;2022-12-29T11:03:50;92.67;;;45.17;;
9294;SDS011;4686;44.496;11.324;2022-12-29T11:06:24;92.30;;;42.97;;
9294;SDS011;4686;44.496;11.324;2022-12-29T11:08:55;91.80;;;48.83;;
9294;SDS011;4686;44.496;11.324;2022-12-29T11:11:24;94.87;;;47.40;;
9294;SDS011;4686;44.496;11.324;2022-12-29T11:13:56;110.57;;;50.90;;
9294;SDS011;4686;44.496;11.324;2022-12-29T11:16:27;101.17;;;48.37;;
9294;SDS011;4686;44.496;11.324;2022-12-29T11:18:55;102.10;;;49.47;;
9294;SDS011;4686;44.496;11.324;2022-12-29T11:21:25;96.33;;;50.23;;
9294;SDS011;4686;44.496;11.324;2022-12-29T11:23:56;95.87;;;47.57;;
9294;SDS011;4686;44.496;11.324;2022-12-29T11:26:24;95.93;;;47.50;;
9294;SDS011;4686;44.496;11.324;2022-12-29T11:31:40;92.87;;;48.13;;
9294;SDS011;4686;44.496;11.324;2022-12-29T11:34:07;108.70;;;49.30;;
9294;SDS011;4686;44.496;11.324;2022-12-29T11:36:35;103.80;;;48.07;;
9294;SDS011;4686;44.496;11.324;2022-12-29T11:39:04;93.17;;;44.33;;
9294;SDS011;4686;44.496;11.324;2022-12-29T11:41:31;94.40;;;45.10;;
9294;SDS011;4686;44.496;11.324;2022-12-29T11:43:59;102.80;;;49.30;;
9294;SDS011;4686;44.496;11.324;2022-12-29T11:46:27;105.07;;;48.77;;
9294;SDS011;4686;44.496;11.324;2022-12-29T11:48:56;104.37;;;47.73;;
9294;SDS011;4686;44.496;11.324;2022-12-29T11:51:26;100.40;;;48.07;;
9294;SDS011;4686;44.496;11.324;2022-12-29T11:53:55;97.40;;;46.50;;
9294;SDS011;4686;44.496;11.324;2022-12-29T11:56:33;94.83;;;48.37;;
9294;SDS011;4686;44.496;11.324;2022-12-29T12:01:43;98.27;;;47.67;;
9294;SDS011;4686;44.496;11.324;2022-12-29T12:04:12;88.97;;;44.57;;
9294;SDS011;4686;44.496;11.324;2022-12-29T12:06:43;94.37;;;44.77;;
9294;SDS011;4686;44.496;11.324;2022-12-29T12:09:14;88.00;;;44.47;;
9294;SDS011;4686;44.496;11.324;2022-12-29T12:11:44;83.33;;;46.90;;
9294;SDS011;4686;44.496;11.324;2022-12-29T12:14:12;90.30;;;45.57;;
9294;SDS011;4686;44.496;11.324;2022-12-29T12:16:41;92.23;;;46.60;;
9294;SDS011;4686;44.496;11.324;2022-12-29T12:19:13;99.97;;;50.27;;
9294;SDS011;4686;44.496;11.324;2022-12-29T12:21:42;95.20;;;46.70;;
9294;SDS011;4686;44.496;11.324;2022-12-29T12:24:15;94.93;;;47.90;;
9294;SDS011;4686;44.496;11.324;2022-12-29T12:26:52;96.07;;;46.73;;
9294;SDS011;4686;44.496;11.324;2022-12-29T12:29:22;90.30;;;47.50;;
9294;SDS011;4686;44.496;11.324;2022-12-29T12:31:53;87.07;;;45.30;;
9294;SDS011;4686;44.496;11.324;2022-12-29T12:34:23;100.60;;;47.50;;
9294;SDS011;4686;44.496;11.324;2022-12-29T12:37:02;99.17;;;45.00;;
9294;SDS011;4686;44.496;11.324;2022-12-29T12:39:34;97.60;;;46.97;;
9294;SDS011;4686;44.496;11.324;2022-12-29T12:42:09;95.60;;;47.60;;
9294;SDS011;4686;44.496;11.324;2022-12-29T12:44:44;89.30;;;47.37;;
9294;SDS011;4686;44.496;11.324;2022-12-29T12:47:19;92.70;;;44.63;;
9294;SDS011;4686;44.496;11.324;2022-12-29T12:49:57;88.97;;;45.93;;
9294;SDS011;4686;44.496;11.324;2022-12-29T12:52:32;92.73;;;46.80;;
9294;SDS011;4686;44.496;11.324;2022-12-29T12:55:15;94.67;;;46.30;;
9294;SDS011;4686;44.496;11.324;2022-12-29T12:57:48;100.47;;;48.30;;
9294;SDS011;4686;44.496;11.324;2022-12-29T13:00:20;94.37;;;45.90;;
9294;SDS011;4686;44.496;11.324;2022-12-29T13:02:51;92.73;;;47.07;;
9294;SDS011;4686;44.496;11.324;2022-12-29T13:05:25;93.40;;;44.13;;
9294;SDS011;4686;44.496;11.324;2022-12-29T13:07:58;90.77;;;46.33;;
9294;SDS011;4686;44.496;11.324;2022-12-29T13:10:34;86.53;;;43.90;;
9294;SDS011;4686;44.496;11.324;2022-12-29T13:13:10;87.40;;;44.20;;
9294;SDS011;4686;44.496;11.324;2022-12-29T13:15:42;94.77;;;44.60;;
9294;SDS011;4686;44.496;11.324;2022-12-29T13:18:15;89.30;;;44.33;;
9294;SDS011;4686;44.496;11.324;2022-12-29T13:20:46;89.27;;;44.97;;
9294;SDS011;4686;44.496;11.324;2022-12-29T13:23:16;90.50;;;46.57;;
9294;SDS011;4686;44.496;11.324;2022-12-29T13:25:47;95.23;;;47.53;;
9294;SDS011;4686;44.496;11.324;2022-12-29T13:28:19;92.43;;;45.60;;
9294;SDS011;4686;44.496;11.324;2022-12-29T13:30:52;100.03;;;46.40;;
9294;SDS011;4686;44.496;11.324;2022-12-29T13:33:23;88.30;;;45.40;;
9294;SDS011;4686;44.496;11.324;2022-12-29T13:35:55;95.77;;;46.50;;
9294;SDS011;4686;44.496;11.324;2022-12-29T13:38:24;95.33;;;45.20;;
9294;SDS011;4686;44.496;11.324;2022-12-29T13:40:53;97.63;;;45.30;;
9294;SDS011;4686;44.496;11.324;2022-12-29T13:43:23;93.13;;;44.87;;
9294;SDS011;4686;44.496;11.324;2022-12-29T13:45:53;96.20;;;46.23;;
9294;SDS011;4686;44.496;11.324;2022-12-29T13:48:23;107.97;;;48.80;;
9294;SDS011;4686;44.496;11.324;2022-12-29T13:50:53;102.37;;;47.80;;
9294;SDS011;4686;44.496;11.324;2022-12-29T13:53:24;102.20;;;49.27;;
9294;SDS011;4686;44.496;11.324;2022-12-29T13:55:56;89.33;;;45.57;;
9294;SDS011;4686;44.496;11.324;2022-12-29T13:58:28;102.70;;;46.80;;
9294;SDS011;4686;44.496;11.324;2022-12-29T14:01:00;101.40;;;47.20;;
9294;SDS011;4686;44.496;11.324;2022-12-29T14:03:37;98.30;;;48.10;;
9294;SDS011;4686;44.496;11.324;2022-12-29T14:06:14;100.43;;;46.77;;
9294;SDS011;4686;44.496;11.324;2022-12-29T14:08:42;109.70;;;49.17;;
9294;SDS011;4686;44.496;11.324;2022-12-29T14:11:10;106.90;;;47.33;;
9294;SDS011;4686;44.496;11.324;2022-12-29T14:13:39;96.17;;;46.27;;
9294;SDS011;4686;44.496;11.324;2022-12-29T14:16:09;104.03;;;48.63;;
9294;SDS011;4686;44.496;11.324;2022-12-29T14:18:41;97.70;;;48.83;;
9294;SDS011;4686;44.496;11.324;2022-12-29T14:21:10;95.80;;;48.50;;
9294;SDS011;4686;44.496;11.324;2022-12-29T14:23:45;113.20;;;47.87;;
9294;SDS011;4686;44.496;11.324;2022-12-29T14:26:15;104.50;;;47.20;;
9294;SDS011;4686;44.496;11.324;2022-12-29T14:28:44;95.03;;;47.60;;
9294;SDS011;4686;44.496;11.324;2022-12-29T14:36:52;99.30;;;48.73;;
9294;SDS011;4686;44.496;11.324;2022-12-29T14:39:34;105.47;;;47.60;;
9294;SDS011;4686;44.496;11.324;2022-12-29T14:42:04;101.60;;;46.43;;
9294;SDS011;4686;44.496;11.324;2022-12-29T14:44:34;104.77;;;46.60;;
9294;SDS011;4686;44.496;11.324;2022-12-29T14:47:03;92.60;;;44.90;;
9294;SDS011;4686;44.496;11.324;2022-12-29T14:49:33;94.50;;;45.50;;
9294;SDS011;4686;44.496;11.324;2022-12-29T14:52:07;92.33;;;42.50;;
9294;SDS011;4686;44.496;11.324;2022-12-29T14:54:41;86.83;;;43.47;;
9294;SDS011;4686;44.496;11.324;2022-12-29T14:57:11;96.10;;;46.20;;